Time;durP1;ratioP1;P1;durP2;ratioP2;P2;SDS_P1;SDS_P2;PMS_P1;PMS_P2;Temp;Humidity;BMP_temperature;BMP_pressure;BME280_temperature;BME280_humidity;BME280_pressure;Samples;Min_cycle;Max_cycle;Signal;HPM_P1;HPM_P2
2021/11/06 00:00:23;;;;;;;0.40;0.20;;;4.10;99.90;;;;;;5092447;28;20850;-69
2021/11/06 00:02:49;;;;;;;0.40;0.20;;;4.00;99.90;;;;;;5091380;28;20492;-70
2021/11/06 00:05:15;;;;;;;0.40;0.40;;;4.00;99.90;;;;;;5092041;28;20375;-70
2021/11/06 00:07:41;;;;;;;0.40;0.30;;;4.00;99.90;;;;;;5091521;28;20381;-69
2021/11/06 00:10:08;;;;;;;0.50;0.40;;;3.90;99.90;;;;;;5091187;28;20463;-70
2021/11/06 00:12:35;;;;;;;0.40;0.20;;;3.90;99.90;;;;;;5091852;28;20785;-70
2021/11/06 00:15:00;;;;;;;0.40;0.40;;;3.90;99.90;;;;;;5091087;28;20374;-69
2021/11/06 00:17:26;;;;;;;0.40;0.20;;;3.90;99.90;;;;;;5091452;28;20393;-70
2021/11/06 00:19:52;;;;;;;1.00;0.60;;;3.80;99.90;;;;;;5091021;28;20455;-70
2021/11/06 00:22:18;;;;;;;0.40;0.20;;;3.80;99.90;;;;;;5091422;28;20499;-70
2021/11/06 00:24:43;;;;;;;0.40;0.20;;;3.70;99.90;;;;;;5090219;28;20468;-69
2021/11/06 00:27:09;;;;;;;0.90;0.50;;;3.70;99.90;;;;;;5090961;28;20661;-70
2021/11/06 00:29:37;;;;;;;0.40;0.20;;;3.70;99.90;;;;;;5091337;28;20370;-69
2021/11/06 00:32:04;;;;;;;0.40;0.30;;;3.60;99.90;;;;;;5090847;28;20409;-69
2021/11/06 00:34:29;;;;;;;0.40;0.20;;;3.60;99.90;;;;;;5091723;28;20760;-70
2021/11/06 00:36:55;;;;;;;0.40;0.20;;;3.60;99.90;;;;;;5090588;28;20398;-70
2021/11/06 00:39:21;;;;;;;0.40;0.20;;;3.60;99.90;;;;;;5091597;28;20522;-70
2021/11/06 00:41:46;;;;;;;0.40;0.20;;;3.60;99.90;;;;;;5091247;28;20378;-69
2021/11/06 00:44:12;;;;;;;0.40;0.20;;;3.50;99.90;;;;;;5090696;28;20464;-70
2021/11/06 00:46:37;;;;;;;0.93;0.67;;;3.50;99.90;;;;;;5091036;28;20968;-70
2021/11/06 00:49:03;;;;;;;0.40;0.30;;;3.60;99.90;;;;;;5090229;28;20438;-70
2021/11/06 00:51:29;;;;;;;0.40;0.30;;;3.60;99.90;;;;;;5090647;28;20406;-69
2021/11/06 00:53:55;;;;;;;0.40;0.20;;;3.50;99.90;;;;;;5090735;28;20381;-70
2021/11/06 00:56:20;;;;;;;0.40;0.30;;;3.60;99.90;;;;;;5090858;28;20402;-70
2021/11/06 00:58:48;;;;;;;0.40;0.20;;;3.60;99.90;;;;;;5090171;28;20414;-70
2021/11/06 01:01:13;;;;;;;0.40;0.30;;;3.60;99.90;;;;;;5090014;28;20467;-69
2021/11/06 01:03:42;;;;;;;0.40;0.20;;;3.60;99.90;;;;;;5090856;28;20389;-70
2021/11/06 01:06:08;;;;;;;0.40;0.30;;;3.60;99.90;;;;;;5090129;28;20392;-70
2021/11/06 01:08:34;;;;;;;0.40;0.30;;;3.40;99.90;;;;;;5090962;28;20473;-69
2021/11/06 01:11:00;;;;;;;0.40;0.20;;;3.50;99.90;;;;;;5090018;28;20455;-69
2021/11/06 01:13:26;;;;;;;0.40;0.30;;;3.30;99.90;;;;;;5090687;28;20799;-69
2021/11/06 01:15:51;;;;;;;0.40;0.20;;;3.30;99.90;;;;;;5090538;28;20444;-69
2021/11/06 01:18:17;;;;;;;0.40;0.30;;;3.30;99.90;;;;;;5090019;28;20386;-70
2021/11/06 01:20:42;;;;;;;1.40;1.00;;;3.30;99.90;;;;;;5090831;28;20374;-70
2021/11/06 01:23:08;;;;;;;0.40;0.20;;;3.30;99.90;;;;;;5089968;28;20712;-70
2021/11/06 01:25:34;;;;;;;0.40;0.20;;;3.40;99.90;;;;;;5090572;28;20400;-70
2021/11/06 01:28:00;;;;;;;0.40;0.20;;;3.40;99.90;;;;;;5089869;28;20857;-70
2021/11/06 01:30:25;;;;;;;0.40;0.20;;;3.40;99.90;;;;;;5089378;28;20519;-70
2021/11/06 01:32:51;;;;;;;0.40;0.20;;;3.40;99.90;;;;;;5090165;28;20386;-70
2021/11/06 01:35:18;;;;;;;0.40;0.30;;;3.40;99.90;;;;;;5089700;28;20393;-71
2021/11/06 01:37:44;;;;;;;0.40;0.20;;;3.50;99.90;;;;;;5090161;28;20394;-69
2021/11/06 01:40:12;;;;;;;0.40;0.20;;;3.40;99.90;;;;;;5089864;28;20426;-70
2021/11/06 01:42:40;;;;;;;0.40;0.20;;;3.40;99.90;;;;;;5090297;28;20406;-70
2021/11/06 01:45:07;;;;;;;0.40;0.20;;;3.40;99.90;;;;;;5088446;28;20382;-70
2021/11/06 01:47:33;;;;;;;0.40;0.20;;;3.30;99.90;;;;;;5090194;28;20410;-70
2021/11/06 01:49:58;;;;;;;0.40;0.20;;;3.40;99.90;;;;;;5089790;28;20418;-70
2021/11/06 01:52:24;;;;;;;0.40;0.30;;;3.30;99.90;;;;;;5090110;28;20406;-70
2021/11/06 01:54:50;;;;;;;0.40;0.20;;;3.30;99.90;;;;;;5089984;28;20401;-69
2021/11/06 01:57:16;;;;;;;0.40;0.30;;;3.30;99.90;;;;;;5089256;28;20413;-70
2021/11/06 01:59:43;;;;;;;0.40;0.20;;;3.20;99.90;;;;;;5090009;28;20374;-69
2021/11/06 02:02:10;;;;;;;0.40;0.30;;;3.20;99.90;;;;;;5089600;28;20379;-70
2021/11/06 02:04:36;;;;;;;0.40;0.20;;;3.20;99.90;;;;;;5089987;28;20707;-70
2021/11/06 02:07:03;;;;;;;0.40;0.30;;;3.20;99.90;;;;;;5089512;28;20409;-69
2021/11/06 02:09:29;;;;;;;0.40;0.20;;;3.20;99.90;;;;;;5090139;28;20394;-69
2021/11/06 02:11:58;;;;;;;0.43;0.40;;;3.20;99.90;;;;;;5089956;28;20654;-70
2021/11/06 02:14:24;;;;;;;0.40;0.20;;;3.20;99.90;;;;;;5090109;28;20739;-70
2021/11/06 02:16:52;;;;;;;0.40;0.20;;;3.10;99.90;;;;;;5088597;28;20409;-69
2021/11/06 02:19:24;;;;;;;0.40;0.20;;;3.10;99.90;;;;;;5089511;28;20734;-70
2021/11/06 02:21:51;;;;;;;0.40;0.30;;;3.10;99.90;;;;;;5092243;28;20389;-70
2021/11/06 02:24:17;;;;;;;1.40;0.60;;;3.20;99.90;;;;;;5093357;28;20424;-70
2021/11/06 02:26:43;;;;;;;0.40;0.20;;;3.10;99.90;;;;;;5093771;28;20927;-69
2021/11/06 02:29:08;;;;;;;0.57;0.57;;;3.20;99.90;;;;;;5093167;28;20385;-70
2021/11/06 02:31:35;;;;;;;0.40;0.20;;;3.20;99.90;;;;;;5093630;28;20831;-69
2021/11/06 02:34:00;;;;;;;0.40;0.20;;;3.20;99.90;;;;;;5093088;28;20390;-70
2021/11/06 02:36:26;;;;;;;0.40;0.20;;;3.00;99.90;;;;;;5093498;28;20408;-70
2021/11/06 02:38:52;;;;;;;0.40;0.30;;;3.20;99.90;;;;;;5093880;28;20750;-69
2021/11/06 02:41:18;;;;;;;0.40;0.20;;;3.00;99.90;;;;;;5092915;28;20937;-69
2021/11/06 02:43:44;;;;;;;0.40;0.20;;;3.00;99.90;;;;;;5093608;28;20481;-69
2021/11/06 02:46:10;;;;;;;0.40;0.20;;;2.90;99.90;;;;;;5092903;28;20465;-70
2021/11/06 02:48:35;;;;;;;0.40;0.20;;;2.90;99.90;;;;;;5093541;28;20858;-69
2021/11/06 02:51:01;;;;;;;0.40;0.20;;;2.90;99.90;;;;;;5092995;28;20375;-70
2021/11/06 02:53:27;;;;;;;0.40;0.20;;;2.90;99.90;;;;;;5093458;28;20398;-69
2021/11/06 02:55:52;;;;;;;0.40;0.30;;;2.90;99.90;;;;;;5092918;28;20433;-69
2021/11/06 02:58:18;;;;;;;0.40;0.20;;;2.90;99.90;;;;;;5092570;28;20696;-69
2021/11/06 03:00:44;;;;;;;0.40;0.30;;;2.90;99.90;;;;;;5092910;28;20388;-70
2021/11/06 03:03:10;;;;;;;0.40;0.20;;;2.90;99.90;;;;;;5092467;28;20371;-70
2021/11/06 03:05:36;;;;;;;0.52;0.52;;;2.90;99.90;;;;;;5091788;28;20405;-70
2021/11/06 03:08:01;;;;;;;0.40;0.30;;;2.80;99.90;;;;;;5092417;28;20434;-70
2021/11/06 03:10:27;;;;;;;0.60;0.60;;;2.80;99.90;;;;;;5093153;28;20434;-70
2021/11/06 03:12:54;;;;;;;0.40;0.30;;;2.80;99.90;;;;;;5092970;28;20374;-69
2021/11/06 03:15:22;;;;;;;0.40;0.30;;;2.80;99.90;;;;;;5092309;28;20393;-70
2021/11/06 03:17:47;;;;;;;0.40;0.20;;;2.80;99.90;;;;;;5092790;28;20385;-69
2021/11/06 03:20:15;;;;;;;0.40;0.20;;;2.80;99.90;;;;;;5092279;28;20378;-70
2021/11/06 03:22:41;;;;;;;0.40;0.30;;;2.70;99.90;;;;;;5092679;28;20406;-69
2021/11/06 03:25:09;;;;;;;0.40;0.20;;;2.70;99.90;;;;;;5092145;28;20770;-70
2021/11/06 03:27:34;;;;;;;0.40;0.20;;;2.70;99.90;;;;;;5092574;28;20381;-69
2021/11/06 03:30:01;;;;;;;0.40;0.20;;;2.70;99.90;;;;;;5092654;28;20401;-68
2021/11/06 03:32:26;;;;;;;0.40;0.40;;;2.90;99.90;;;;;;5091549;28;20382;-68
2021/11/06 03:34:52;;;;;;;0.40;0.20;;;2.90;99.90;;;;;;5092388;28;20405;-68
2021/11/06 03:37:18;;;;;;;0.40;0.30;;;2.80;99.90;;;;;;5091330;28;20426;-69
2021/11/06 03:39:43;;;;;;;0.40;0.20;;;2.70;99.90;;;;;;5092467;28;20421;-68
2021/11/06 03:42:09;;;;;;;0.40;0.30;;;2.60;99.90;;;;;;5091750;28;20374;-69
2021/11/06 03:44:36;;;;;;;0.40;0.30;;;2.70;99.90;;;;;;5092290;28;20382;-69
2021/11/06 03:47:03;;;;;;;0.60;0.60;;;2.60;99.90;;;;;;5091455;28;20893;-69
2021/11/06 03:49:28;;;;;;;0.40;0.30;;;2.60;99.90;;;;;;5092250;28;20731;-69
2021/11/06 03:51:54;;;;;;;0.40;0.30;;;2.50;99.90;;;;;;5091656;28;20402;-69
2021/11/06 03:54:20;;;;;;;0.40;0.20;;;2.60;99.90;;;;;;5091466;28;20381;-69
2021/11/06 03:56:45;;;;;;;0.40;0.20;;;2.60;99.90;;;;;;5092204;28;20402;-69
2021/11/06 03:59:11;;;;;;;0.40;0.20;;;2.60;99.90;;;;;;5091427;28;20871;-69
2021/11/06 04:01:37;;;;;;;0.40;0.30;;;2.60;99.90;;;;;;5092048;28;20405;-69
2021/11/06 04:04:03;;;;;;;0.40;0.20;;;2.60;99.90;;;;;;5091336;28;20374;-69
2021/11/06 04:06:30;;;;;;;0.90;0.70;;;2.70;99.90;;;;;;5092070;28;20386;-69
2021/11/06 04:08:55;;;;;;;0.40;0.20;;;2.70;99.90;;;;;;5092028;28;20847;-69
2021/11/06 04:11:22;;;;;;;0.40;0.20;;;2.70;99.90;;;;;;5091226;28;20379;-69
2021/11/06 04:13:48;;;;;;;0.40;0.20;;;2.70;99.90;;;;;;5091696;28;20414;-69
2021/11/06 04:16:14;;;;;;;0.40;0.20;;;2.70;99.90;;;;;;5090980;28;20452;-70
2021/11/06 04:18:40;;;;;;;0.40;0.20;;;2.50;99.90;;;;;;5091655;28;20384;-69
2021/11/06 04:21:06;;;;;;;0.40;0.20;;;2.40;99.90;;;;;;5091038;28;20461;-70
2021/11/06 04:23:31;;;;;;;0.40;0.20;;;2.40;99.90;;;;;;5091292;28;20366;-69
2021/11/06 04:25:57;;;;;;;0.40;0.20;;;2.40;99.90;;;;;;5091303;28;20514;-69
2021/11/06 04:28:23;;;;;;;0.40;0.20;;;2.40;99.90;;;;;;5090907;28;20461;-69
2021/11/06 04:30:49;;;;;;;0.40;0.20;;;2.40;99.90;;;;;;5091805;28;20405;-69
2021/11/06 04:33:16;;;;;;;0.40;0.20;;;2.40;99.90;;;;;;5090727;28;20399;-69
2021/11/06 04:35:41;;;;;;;0.40;0.22;;;2.30;99.90;;;;;;5091419;28;20463;-69
2021/11/06 04:38:07;;;;;;;0.40;0.30;;;2.40;99.90;;;;;;5090650;28;20481;-70
2021/11/06 04:40:33;;;;;;;0.40;0.20;;;2.30;99.90;;;;;;5091431;28;20738;-70
2021/11/06 04:42:59;;;;;;;0.40;0.30;;;2.20;99.90;;;;;;5090865;28;20515;-70
2021/11/06 04:45:24;;;;;;;0.40;0.20;;;2.20;99.90;;;;;;5090063;28;20737;-70
2021/11/06 04:47:50;;;;;;;0.40;0.20;;;2.40;99.90;;;;;;5091438;28;20389;-70
2021/11/06 04:50:16;;;;;;;0.40;0.20;;;2.30;99.90;;;;;;5090594;28;20903;-70
2021/11/06 04:52:42;;;;;;;0.40;0.20;;;2.30;99.90;;;;;;5090974;28;20397;-70
2021/11/06 04:55:12;;;;;;;0.40;0.20;;;2.40;99.90;;;;;;5090199;28;20468;-70
2021/11/06 04:57:38;;;;;;;0.40;0.30;;;2.30;99.90;;;;;;5091118;28;20435;-70
2021/11/06 05:00:06;;;;;;;0.40;0.20;;;2.30;99.90;;;;;;5090862;28;20392;-70
2021/11/06 05:02:31;;;;;;;0.40;0.20;;;2.20;99.90;;;;;;5091544;28;20394;-70
2021/11/06 05:04:57;;;;;;;0.40;0.30;;;2.10;99.90;;;;;;5091393;28;20480;-70
2021/11/06 05:07:24;;;;;;;0.40;0.28;;;2.10;99.90;;;;;;5090739;28;20867;-70
2021/11/06 05:09:50;;;;;;;0.40;0.20;;;2.00;99.90;;;;;;5091298;28;20389;-70
2021/11/06 05:12:19;;;;;;;0.40;0.30;;;2.10;99.90;;;;;;5090807;28;20792;-70
2021/11/06 05:14:45;;;;;;;0.40;0.20;;;2.00;99.90;;;;;;5091318;28;20386;-69
2021/11/06 05:17:11;;;;;;;0.40;0.20;;;2.00;99.90;;;;;;5090334;28;20935;-70
2021/11/06 05:19:37;;;;;;;0.40;0.20;;;2.00;99.90;;;;;;5091385;28;20386;-70
2021/11/06 05:22:02;;;;;;;0.40;0.20;;;2.00;99.90;;;;;;5091166;28;20382;-70
2021/11/06 05:24:28;;;;;;;0.40;0.30;;;2.00;99.90;;;;;;5090528;28;20391;-70
2021/11/06 05:26:54;;;;;;;0.40;0.20;;;1.90;99.90;;;;;;5091186;28;20420;-70
2021/11/06 05:29:20;;;;;;;0.40;0.20;;;1.90;99.90;;;;;;5090200;28;20373;-70
2021/11/06 05:31:46;;;;;;;0.40;0.20;;;1.90;99.90;;;;;;5091208;28;20684;-70
2021/11/06 05:34:12;;;;;;;0.40;0.20;;;1.90;99.90;;;;;;5090477;28;20375;-70
2021/11/06 05:36:37;;;;;;;0.40;0.20;;;1.90;99.90;;;;;;5090897;28;20489;-70
2021/11/06 05:39:04;;;;;;;0.40;0.22;;;2.00;99.90;;;;;;5090668;28;20470;-70
2021/11/06 05:41:30;;;;;;;0.40;0.20;;;2.00;99.90;;;;;;5090350;28;20381;-70
2021/11/06 05:43:56;;;;;;;0.40;0.20;;;2.00;99.90;;;;;;5090863;28;20382;-70
2021/11/06 05:46:22;;;;;;;0.40;0.30;;;2.10;99.90;;;;;;5090311;28;20378;-70
2021/11/06 05:48:48;;;;;;;0.40;0.30;;;2.00;99.90;;;;;;5091112;28;20869;-70
2021/11/06 05:51:13;;;;;;;0.40;0.30;;;2.00;99.90;;;;;;5090059;28;20386;-70
2021/11/06 05:53:39;;;;;;;0.40;0.20;;;2.00;99.90;;;;;;5090560;28;20478;-70
2021/11/06 05:56:05;;;;;;;0.40;0.30;;;2.00;99.90;;;;;;5091252;28;20550;-70
2021/11/06 05:58:30;;;;;;;0.40;0.20;;;2.00;99.90;;;;;;5094578;28;20437;-69
2021/11/06 06:00:56;;;;;;;0.40;0.20;;;2.00;99.90;;;;;;5094973;28;20377;-70
2021/11/06 06:03:22;;;;;;;0.40;0.20;;;2.00;99.90;;;;;;5094083;28;20377;-70
2021/11/06 06:05:47;;;;;;;0.40;0.20;;;1.90;99.90;;;;;;5094473;28;20386;-70
2021/11/06 06:08:13;;;;;;;0.40;0.30;;;2.10;99.90;;;;;;5094280;28;20443;-71
2021/11/06 06:10:39;;;;;;;0.40;0.30;;;2.00;99.90;;;;;;5094693;28;20821;-70
2021/11/06 06:13:05;;;;;;;0.40;0.20;;;2.00;99.90;;;;;;5094733;28;20382;-70
2021/11/06 06:15:30;;;;;;;0.40;0.20;;;2.00;99.90;;;;;;5092726;28;20382;-70
2021/11/06 06:17:57;;;;;;;0.40;0.20;;;2.10;99.90;;;;;;5094495;28;20386;-70
2021/11/06 06:20:22;;;;;;;0.50;0.50;;;2.20;99.90;;;;;;5092629;28;20377;-69
2021/11/06 06:22:48;;;;;;;0.40;0.40;;;2.10;99.90;;;;;;5094563;28;20455;-70
2021/11/06 06:25:15;;;;;;;0.40;0.20;;;2.20;99.90;;;;;;5093775;28;20378;-70
2021/11/06 06:27:42;;;;;;;0.40;0.30;;;2.30;99.90;;;;;;5093038;28;20874;-70
2021/11/06 06:30:14;;;;;;;0.40;0.30;;;2.20;99.90;;;;;;5094315;28;20739;-70
2021/11/06 06:32:41;;;;;;;0.40;0.20;;;2.30;99.90;;;;;;5094277;28;20418;-70
2021/11/06 06:35:08;;;;;;;0.40;0.20;;;2.30;99.90;;;;;;5094223;28;20783;-70
2021/11/06 06:37:34;;;;;;;0.40;0.20;;;2.20;99.90;;;;;;5093458;28;20428;-70
2021/11/06 06:40:01;;;;;;;0.40;0.30;;;2.10;99.90;;;;;;5092808;28;20393;-70
2021/11/06 06:42:27;;;;;;;0.40;0.20;;;2.20;99.90;;;;;;5093548;28;20461;-70
2021/11/06 06:44:53;;;;;;;0.40;0.20;;;2.20;99.90;;;;;;5094059;28;20457;-70
2021/11/06 06:47:19;;;;;;;0.40;0.20;;;2.20;99.90;;;;;;5093253;28;20826;-70
2021/11/06 06:49:46;;;;;;;0.40;0.20;;;2.30;99.90;;;;;;5093879;28;20412;-70
2021/11/06 06:52:13;;;;;;;0.40;0.20;;;2.20;99.90;;;;;;5093853;28;20390;-70
2021/11/06 06:54:39;;;;;;;0.40;0.20;;;2.30;99.90;;;;;;5093959;28;20405;-70
2021/11/06 06:57:05;;;;;;;0.40;0.30;;;2.30;99.90;;;;;;5093886;28;20741;-69
2021/11/06 06:59:33;;;;;;;0.40;0.22;;;2.30;99.90;;;;;;5093173;28;20382;-70
2021/11/06 07:02:02;;;;;;;0.40;0.30;;;2.30;99.90;;;;;;5093826;28;20378;-70
2021/11/06 07:04:28;;;;;;;0.40;0.20;;;2.50;99.90;;;;;;5093483;28;20468;-69
2021/11/06 07:06:54;;;;;;;0.40;0.20;;;2.50;99.90;;;;;;5093502;28;20477;-70
2021/11/06 07:09:20;;;;;;;0.40;0.30;;;2.50;99.90;;;;;;5093062;28;20465;-70
2021/11/06 07:11:47;;;;;;;0.40;0.40;;;2.40;99.90;;;;;;5093377;28;20378;-70
2021/11/06 07:14:15;;;;;;;0.40;0.20;;;2.50;99.90;;;;;;5093513;28;20382;-70
2021/11/06 07:16:40;;;;;;;0.70;0.70;;;2.60;99.90;;;;;;5093589;28;20406;-70
2021/11/06 07:19:06;;;;;;;0.40;0.30;;;2.70;99.90;;;;;;5093551;28;20920;-70
2021/11/06 07:21:32;;;;;;;0.40;0.20;;;2.70;99.90;;;;;;5092753;28;20385;-70
2021/11/06 07:23:57;;;;;;;0.40;0.28;;;2.60;99.90;;;;;;5093451;28;20735;-70
2021/11/06 07:26:23;;;;;;;0.50;0.50;;;2.60;99.90;;;;;;5092340;28;20487;-70
2021/11/06 07:28:49;;;;;;;0.40;0.20;;;2.60;99.90;;;;;;5093214;28;20873;-70
2021/11/06 07:31:16;;;;;;;0.40;0.20;;;2.70;99.90;;;;;;5093490;28;20427;-70
2021/11/06 07:33:41;;;;;;;0.40;0.20;;;2.60;99.90;;;;;;5092944;28;20877;-70
2021/11/06 07:36:09;;;;;;;0.40;0.20;;;2.80;99.90;;;;;;5093101;28;20418;-70
2021/11/06 07:38:35;;;;;;;0.40;0.30;;;2.80;99.90;;;;;;5092465;28;20433;-70
2021/11/06 07:41:01;;;;;;;2.40;0.70;;;2.90;99.90;;;;;;5092979;28;20426;-70
2021/11/06 07:43:26;;;;;;;0.40;0.30;;;3.00;99.90;;;;;;5091094;28;20866;-68
2021/11/06 07:45:52;;;;;;;0.40;0.20;;;3.00;99.90;;;;;;5092871;28;20390;-69
2021/11/06 07:48:18;;;;;;;0.40;0.20;;;3.00;99.90;;;;;;5092238;28;20374;-69
2021/11/06 07:50:43;;;;;;;0.43;0.32;;;3.00;99.90;;;;;;5092700;28;20382;-68
2021/11/06 07:53:09;;;;;;;0.40;0.20;;;3.10;99.90;;;;;;5092384;28;20401;-68
2021/11/06 07:55:36;;;;;;;1.00;1.00;;;3.10;99.90;;;;;;5091941;28;20817;-68
2021/11/06 07:58:01;;;;;;;0.40;0.25;;;3.20;99.90;;;;;;5092690;28;20378;-68
2021/11/06 08:00:27;;;;;;;0.40;0.30;;;3.30;99.90;;;;;;5091984;28;20466;-69
2021/11/06 08:02:52;;;;;;;0.40;0.30;;;3.40;99.90;;;;;;5092604;28;20474;-68
2021/11/06 08:05:19;;;;;;;0.77;0.77;;;3.50;99.90;;;;;;5091890;28;20383;-69
2021/11/06 08:07:45;;;;;;;0.40;0.30;;;3.60;99.90;;;;;;5092329;28;20387;-69
2021/11/06 08:10:11;;;;;;;0.40;0.20;;;3.70;99.90;;;;;;5092590;28;20413;-68
2021/11/06 08:12:37;;;;;;;0.40;0.30;;;3.80;99.90;;;;;;5091811;28;20428;-68
2021/11/06 08:15:04;;;;;;;0.70;0.70;;;3.80;99.90;;;;;;5092358;28;20386;-69
2021/11/06 08:17:30;;;;;;;0.90;0.90;;;3.90;99.90;;;;;;5091311;28;20897;-69
2021/11/06 08:19:56;;;;;;;0.40;0.20;;;4.00;99.90;;;;;;5091480;28;20394;-68
2021/11/06 08:22:22;;;;;;;0.57;0.57;;;4.10;99.90;;;;;;5091623;28;20506;-68
2021/11/06 08:24:47;;;;;;;0.40;0.40;;;4.20;99.90;;;;;;5092136;28;20495;-69
2021/11/06 08:27:14;;;;;;;0.40;0.30;;;4.20;99.90;;;;;;5091905;28;20378;-69
2021/11/06 08:29:40;;;;;;;0.40;0.20;;;4.30;99.90;;;;;;5091415;28;20380;-69
2021/11/06 08:32:06;;;;;;;0.40;0.30;;;4.40;99.90;;;;;;5091980;28;20381;-69
2021/11/06 08:34:33;;;;;;;1.50;0.90;;;4.40;99.90;;;;;;5091250;28;20473;-69
2021/11/06 08:36:59;;;;;;;0.40;0.40;;;4.50;99.90;;;;;;5091586;28;20424;-69
2021/11/06 08:39:24;;;;;;;0.40;0.30;;;4.50;99.90;;;;;;5091319;28;20382;-69
2021/11/06 08:41:51;;;;;;;0.40;0.30;;;4.60;99.90;;;;;;5091727;28;20370;-69
2021/11/06 08:44:21;;;;;;;3.00;1.60;;;4.60;99.90;;;;;;5092051;28;20457;-69
2021/11/06 08:46:50;;;;;;;0.40;0.30;;;4.80;99.90;;;;;;5091502;28;20389;-69
2021/11/06 08:49:17;;;;;;;0.40;0.20;;;4.90;99.90;;;;;;5091741;28;20374;-69
2021/11/06 08:51:52;;;;;;;0.40;0.30;;;5.00;99.90;;;;;;5090440;28;20489;-69
2021/11/06 08:54:19;;;;;;;0.60;0.60;;;5.10;99.90;;;;;;5091548;28;20434;-69
2021/11/06 08:56:46;;;;;;;0.40;0.30;;;5.30;99.90;;;;;;5091111;28;20406;-69
2021/11/06 08:59:15;;;;;;;0.40;0.30;;;5.40;99.90;;;;;;5091525;28;20724;-69
2021/11/06 09:01:41;;;;;;;0.40;0.30;;;5.50;99.90;;;;;;5090647;28;20413;-69
2021/11/06 09:04:06;;;;;;;0.40;0.30;;;5.60;99.90;;;;;;5091433;28;20413;-69
2021/11/06 09:06:34;;;;;;;0.40;0.25;;;5.40;99.90;;;;;;5090419;28;20393;-69
2021/11/06 09:09:11;;;;;;;0.40;0.30;;;5.40;99.90;;;;;;5089955;28;20750;-69
2021/11/06 09:11:38;;;;;;;0.40;0.20;;;5.40;99.90;;;;;;5090666;28;20382;-69
2021/11/06 09:14:05;;;;;;;0.40;0.40;;;5.50;99.90;;;;;;5091243;28;20383;-69
2021/11/06 09:16:31;;;;;;;0.40;0.30;;;5.30;99.90;;;;;;5090477;28;20394;-69
2021/11/06 09:19:00;;;;;;;0.40;0.20;;;5.20;99.90;;;;;;5091581;28;20382;-69
2021/11/06 09:21:26;;;;;;;0.40;0.30;;;5.30;99.90;;;;;;5090181;28;20957;-69
2021/11/06 09:23:52;;;;;;;0.40;0.30;;;5.30;99.90;;;;;;5091071;28;20473;-69
2021/11/06 09:26:19;;;;;;;0.40;0.40;;;5.30;99.90;;;;;;5091098;28;20410;-69
2021/11/06 09:28:47;;;;;;;0.40;0.20;;;5.40;99.90;;;;;;5090482;28;20405;-69
2021/11/06 09:31:14;;;;;;;0.50;0.50;;;5.50;99.90;;;;;;5090979;28;20385;-70
2021/11/06 09:33:41;;;;;;;0.40;0.30;;;5.60;99.90;;;;;;5090141;28;20413;-70
2021/11/06 09:36:08;;;;;;;0.60;0.60;;;5.70;99.90;;;;;;5090784;28;20893;-70
2021/11/06 09:38:33;;;;;;;0.40;0.32;;;5.70;99.90;;;;;;5090574;28;20393;-68
2021/11/06 09:41:02;;;;;;;0.40;0.20;;;5.80;99.90;;;;;;5090553;28;20499;-69
2021/11/06 09:43:28;;;;;;;0.40;0.30;;;5.80;99.90;;;;;;5090280;28;20374;-70
2021/11/06 09:45:55;;;;;;;0.40;0.40;;;5.80;99.90;;;;;;5090993;28;20386;-70
2021/11/06 09:48:24;;;;;;;0.40;0.30;;;5.90;99.90;;;;;;5090839;28;20393;-69
2021/11/06 09:50:51;;;;;;;0.40;0.20;;;6.00;99.90;;;;;;5090579;28;20370;-69
2021/11/06 09:53:17;;;;;;;0.70;0.70;;;6.10;99.90;;;;;;5090883;28;20397;-69
2021/11/06 09:55:44;;;;;;;0.40;0.20;;;6.00;99.90;;;;;;5089870;28;20421;-69
2021/11/06 09:58:10;;;;;;;0.40;0.30;;;6.00;99.90;;;;;;5090543;28;20487;-69
2021/11/06 10:00:35;;;;;;;0.40;0.20;;;6.20;99.90;;;;;;5090166;28;20406;-70
2021/11/06 10:03:02;;;;;;;0.40;0.30;;;6.30;99.90;;;;;;5090673;28;20386;-69
2021/11/06 10:05:52;;;;;;;0.55;0.52;;;6.40;99.90;;;;;;5088766;28;20962;-70
2021/11/06 10:08:22;;;;;;;0.40;0.30;;;6.40;99.90;;;;;;5080257;28;20874;-69
2021/11/06 10:10:50;;;;;;;0.70;0.60;;;6.40;99.90;;;;;;5090111;28;20385;-69
2021/11/06 10:13:16;;;;;;;0.40;0.20;;;6.40;99.90;;;;;;5090570;28;20382;-69
2021/11/06 10:15:45;;;;;;;0.40;0.40;;;6.40;99.90;;;;;;5089977;28;20727;-69
2021/11/06 10:18:23;;;;;;;0.40;0.30;;;6.60;99.90;;;;;;5090275;28;20875;-69
2021/11/06 10:20:58;;;;;;;0.40;0.20;;;6.40;99.90;;;;;;5089871;28;20435;-69
2021/11/06 10:23:28;;;;;;;0.40;0.30;;;6.60;99.90;;;;;;5090294;28;20933;-69
2021/11/06 10:26:27;;;;;;;0.40;0.30;;;6.50;99.90;;;;;;5090527;28;20422;-69
2021/11/06 10:29:15;;;;;;;0.50;0.50;;;6.30;99.90;;;;;;5045740;28;20422;-70
2021/11/06 10:32:03;;;;;;;0.70;0.70;;;6.50;99.90;;;;;;5089747;28;20374;-69
2021/11/06 10:34:36;;;;;;;0.40;0.40;;;6.30;99.90;;;;;;5089879;28;20411;-69
2021/11/06 10:37:06;;;;;;;1.50;1.10;;;6.30;99.90;;;;;;5090357;28;20421;-68
2021/11/06 10:39:33;;;;;;;0.80;0.60;;;6.40;99.90;;;;;;5089863;28;20394;-69
2021/11/06 10:42:15;;;;;;;0.80;0.80;;;6.50;99.90;;;;;;5090831;28;20388;-69
2021/11/06 10:44:42;;;;;;;0.40;0.30;;;6.60;99.90;;;;;;5093846;28;20389;-68
2021/11/06 10:47:09;;;;;;;0.40;0.20;;;6.60;99.90;;;;;;5093897;28;20382;-68
2021/11/06 10:49:47;;;;;;;0.57;0.55;;;6.90;99.90;;;;;;5093478;28;20381;-68
2021/11/06 10:52:16;;;;;;;0.43;0.38;;;7.00;99.90;;;;;;5093254;28;21000;-68
2021/11/06 10:55:03;;;;;;;0.40;0.20;;;7.30;99.90;;;;;;5093110;28;20394;-69
2021/11/06 10:57:30;;;;;;;1.00;0.70;;;7.50;99.90;;;;;;5092862;28;20500;-68
2021/11/06 11:00:13;;;;;;;0.40;0.40;;;7.20;99.90;;;;;;5092310;28;20870;-70
2021/11/06 11:02:39;;;;;;;0.40;0.30;;;7.80;99.90;;;;;;5092992;28;20393;-69
2021/11/06 11:05:25;;;;;;;0.40;0.20;;;8.10;99.90;;;;;;5093695;28;20374;-68
2021/11/06 11:08:08;;;;;;;4.70;0.90;;;8.70;99.90;;;;;;5092680;28;20738;-68
2021/11/06 11:10:38;;;;;;;0.40;0.20;;;8.90;99.90;;;;;;5092941;28;20468;-69
2021/11/06 11:13:13;;;;;;;0.40;0.30;;;9.40;99.90;;;;;;5093121;28;20378;-68
2021/11/06 11:15:44;;;;;;;0.40;0.20;;;9.40;99.90;;;;;;5092839;28;20378;-69
2021/11/06 11:18:34;;;;;;;0.50;0.50;;;9.90;99.90;;;;;;5093193;28;20417;-68
2021/11/06 11:21:14;;;;;;;0.40;0.30;;;9.80;99.90;;;;;;5093372;28;20711;-69
2021/11/06 11:23:57;;;;;;;0.40;0.20;;;10.30;99.90;;;;;;5092662;28;20920;-68
2021/11/06 11:26:34;;;;;;;0.40;0.20;;;10.60;99.90;;;;;;5093304;28;20443;-68
2021/11/06 11:29:02;;;;;;;0.40;0.20;;;9.80;99.90;;;;;;5093169;28;20482;-68
2021/11/06 11:31:28;;;;;;;0.50;0.50;;;9.30;99.90;;;;;;5093040;28;20382;-68
2021/11/06 11:33:55;;;;;;;0.40;0.30;;;9.60;99.90;;;;;;5092333;28;20489;-68
2021/11/06 11:36:27;;;;;;;0.40;0.30;;;9.60;99.90;;;;;;5092980;28;20445;-68
2021/11/06 11:38:53;;;;;;;0.40;0.30;;;10.00;99.90;;;;;;5091967;28;20442;-69
2021/11/06 11:41:46;;;;;;;0.40;0.20;;;8.30;99.90;;;;;;5092909;28;20398;-69
2021/11/06 11:44:38;;;;;;;1.30;0.50;;;8.70;99.90;;;;;;5092835;28;20375;-69
2021/11/06 11:47:10;;;;;;;0.40;0.20;;;9.80;99.90;;;;;;5092821;28;20383;-68
2021/11/06 11:49:40;;;;;;;0.40;0.20;;;10.20;99.90;;;;;;5092194;28;20442;-69
2021/11/06 11:52:32;;;;;;;0.40;0.20;;;9.90;99.90;;;;;;5092459;28;20724;-69
2021/11/06 11:55:06;;;;;;;0.40;0.30;;;11.00;99.90;;;;;;5091740;28;20386;-69
2021/11/06 11:57:33;;;;;;;0.40;0.20;;;10.50;99.90;;;;;;5091962;28;20410;-71
2021/11/06 12:00:00;;;;;;;0.60;0.60;;;10.90;99.90;;;;;;5092581;28;20393;-69
2021/11/06 12:02:28;;;;;;;0.40;0.30;;;11.70;99.90;;;;;;5092614;28;20370;-68
2021/11/06 12:05:21;;;;;;;0.40;0.30;;;11.50;97.80;;;;;;5091867;28;20374;-69
2021/11/06 12:08:07;;;;;;;0.80;0.80;;;11.70;97.90;;;;;;5091787;28;20508;-69
2021/11/06 12:10:34;;;;;;;0.40;0.20;;;11.10;97.80;;;;;;5091459;28;20432;-70
2021/11/06 12:13:04;;;;;;;0.40;0.30;;;11.90;97.90;;;;;;5092287;28;20382;-69
2021/11/06 12:15:59;;;;;;;0.40;0.30;;;11.30;97.10;;;;;;5092319;28;20378;-70
2021/11/06 12:18:34;;;;;;;0.70;0.70;;;10.90;98.30;;;;;;5078414;28;20393;-70
2021/11/06 12:21:18;;;;;;;0.40;0.30;;;10.70;99.90;;;;;;5092134;28;20396;-70
2021/11/06 12:23:58;;;;;;;0.60;0.50;;;10.80;99.90;;;;;;5091534;28;20381;-70
2021/11/06 12:26:31;;;;;;;0.40;0.30;;;10.70;99.90;;;;;;5092260;28;20393;-69
2021/11/06 12:29:05;;;;;;;0.50;0.32;;;10.20;99.90;;;;;;5091361;28;20386;-69
2021/11/06 12:31:37;;;;;;;1.10;0.60;;;10.10;99.90;;;;;;5091631;28;20876;-69
2021/11/06 12:34:05;;;;;;;0.50;0.50;;;10.00;99.90;;;;;;5091649;28;20393;-69
2021/11/06 12:36:33;;;;;;;0.40;0.30;;;9.90;99.90;;;;;;5091892;28;20405;-69
2021/11/06 12:39:01;;;;;;;0.40;0.30;;;10.30;99.90;;;;;;5092074;28;20700;-69
2021/11/06 12:41:35;;;;;;;0.40;0.20;;;10.10;99.90;;;;;;5091733;28;20377;-70
2021/11/06 12:44:03;;;;;;;0.40;0.20;;;10.80;99.90;;;;;;5091510;28;20384;-69
2021/11/06 12:46:32;;;;;;;0.40;0.30;;;9.50;99.90;;;;;;5091349;28;20382;-70
2021/11/06 12:49:03;;;;;;;0.40;0.30;;;9.90;99.90;;;;;;5090949;28;20400;-70
2021/11/06 12:51:34;;;;;;;0.40;0.40;;;10.20;99.90;;;;;;5091567;28;21225;-70
2021/11/06 12:54:14;;;;;;;0.40;0.30;;;9.70;99.90;;;;;;5091294;28;20390;-70
2021/11/06 12:56:48;;;;;;;0.40;0.30;;;10.10;99.90;;;;;;5090910;28;20538;-70
2021/11/06 12:59:16;;;;;;;0.40;0.30;;;9.70;99.90;;;;;;5091388;28;20378;-70